Corona de Tucson, Arizona
Current Conditions -  °F | °C
As of 6:53 PM on Monday 20 Oct 2014 (Local Time) from KTUS Reporting Station
Overcast Overcast  
Wind Chill: 78°   Ceiling: 8000
Heat Index: 78°   Visibility: 10mi
Dew Point: 47°   Wind: 5mph
Humidity: 33%   Direction: 40°NE
Pressure: 29.91"   Gusts: NA
Location:  31.9353°N, 110.697°W
Report Text: KTUS 210153Z 04004KT 10SM BKN080 OVC100 26/08 A2991 RMK AO2 SLP093 T02560083
Loading
Personal Weather Stations






























Interactive Weather Map
Tropical Storm Tracking
New forecast layout! Learn more

10-Day Weather Forecast

Advertisements
Track Severe Weather on mobile